<?xml version='1.0' encoding='UTF-8'?>
<gpx version="1.1" creator="https://www.komoot.de" xmlns="http://www.topografix.com/GPX/1/1" xmlns:xsi="http://www.w3.org/2001/XMLSchema-instance" xsi:schemaLocation="http://www.topografix.com/GPX/1/1 http://www.topografix.com/GPX/1/1/gpx.xsd">
  <metadata>
    <name>Tour dei Laghi di Champorcher</name>
    <author>
      <link href="https://www.komoot.de">
        <text>komoot</text>
        <type>text/html</type>
      </link>
    </author>
  </metadata>
  <trk>
    <name>Tour dei Laghi di Champorcher</name>
    <trkseg>
      <trkpt lat="45.628887" lon="7.605736">
        <ele>1771.781052</ele>
        <time>2022-11-14T09:20:08.509Z</time>
      </trkpt>
      <trkpt lat="45.629025" lon="7.605914">
        <ele>1771.781052</ele>
        <time>2022-11-14T09:20:53.908Z</time>
      </trkpt>
      <trkpt lat="45.629095" lon="7.605865">
        <ele>1771.781052</ele>
        <time>2022-11-14T09:21:05.459Z</time>
      </trkpt>
      <trkpt lat="45.629094" lon="7.605695">
        <ele>1771.781052</ele>
        <time>2022-11-14T09:21:33.639Z</time>
      </trkpt>
      <trkpt lat="45.629171" lon="7.605729">
        <ele>1771.781052</ele>
        <time>2022-11-14T09:21:53.343Z</time>
      </trkpt>
      <trkpt lat="45.629224" lon="7.605638">
        <ele>1771.781052</ele>
        <time>2022-11-14T09:22:14.306Z</time>
      </trkpt>
      <trkpt lat="45.629424" lon="7.605792">
        <ele>1771.781052</ele>
        <time>2022-11-14T09:23:02.045Z</time>
      </trkpt>
      <trkpt lat="45.629562" lon="7.605827">
        <ele>1772.145985</ele>
        <time>2022-11-14T09:23:37.651Z</time>
      </trkpt>
      <trkpt lat="45.629582" lon="7.605921">
        <ele>1773.930198</ele>
        <time>2022-11-14T09:23:48.276Z</time>
      </trkpt>
      <trkpt lat="45.629381" lon="7.606343">
        <ele>1783.202038</ele>
        <time>2022-11-14T09:25:27.027Z</time>
      </trkpt>
      <trkpt lat="45.629429" lon="7.606471">
        <ele>1785.839522</ele>
        <time>2022-11-14T09:26:02.702Z</time>
      </trkpt>
      <trkpt lat="45.629576" lon="7.606282">
        <ele>1790.972798</ele>
        <time>2022-11-14T09:26:56.653Z</time>
      </trkpt>
      <trkpt lat="45.629833" lon="7.606182">
        <ele>1797.889139</ele>
        <time>2022-11-14T09:28:00.590Z</time>
      </trkpt>
      <trkpt lat="45.630346" lon="7.606274">
        <ele>1811.314919</ele>
        <time>2022-11-14T09:30:27.889Z</time>
      </trkpt>
      <trkpt lat="45.630431" lon="7.606155">
        <ele>1814.403843</ele>
        <time>2022-11-14T09:31:30.276Z</time>
      </trkpt>
      <trkpt lat="45.630399" lon="7.606010">
        <ele>1817.164882</ele>
        <time>2022-11-14T09:31:54.340Z</time>
      </trkpt>
      <trkpt lat="45.630424" lon="7.605898">
        <ele>1819.435689</ele>
        <time>2022-11-14T09:32:21.123Z</time>
      </trkpt>
      <trkpt lat="45.630521" lon="7.605894">
        <ele>1822.377376</ele>
        <time>2022-11-14T09:33:03.058Z</time>
      </trkpt>
      <trkpt lat="45.630571" lon="7.605751">
        <ele>1825.766520</ele>
        <time>2022-11-14T09:33:49.993Z</time>
      </trkpt>
      <trkpt lat="45.630722" lon="7.605709">
        <ele>1830.429725</ele>
        <time>2022-11-14T09:34:33.448Z</time>
      </trkpt>
      <trkpt lat="45.630756" lon="7.605629">
        <ele>1832.414209</ele>
        <time>2022-11-14T09:34:56.738Z</time>
      </trkpt>
      <trkpt lat="45.630809" lon="7.605839">
        <ele>1837.146848</ele>
        <time>2022-11-14T09:35:50.665Z</time>
      </trkpt>
      <trkpt lat="45.630886" lon="7.605684">
        <ele>1841.177251</ele>
        <time>2022-11-14T09:36:23.353Z</time>
      </trkpt>
      <trkpt lat="45.630977" lon="7.605878">
        <ele>1846.129181</ele>
        <time>2022-11-14T09:37:30.224Z</time>
      </trkpt>
      <trkpt lat="45.631161" lon="7.606027">
        <ele>1852.539154</ele>
        <time>2022-11-14T09:38:17.822Z</time>
      </trkpt>
      <trkpt lat="45.631280" lon="7.605902">
        <ele>1857.015113</ele>
        <time>2022-11-14T09:39:20.629Z</time>
      </trkpt>
      <trkpt lat="45.631693" lon="7.605668">
        <ele>1870.481642</ele>
        <time>2022-11-14T09:41:23.071Z</time>
      </trkpt>
      <trkpt lat="45.631878" lon="7.605708">
        <ele>1875.815730</ele>
        <time>2022-11-14T09:42:14.648Z</time>
      </trkpt>
      <trkpt lat="45.631925" lon="7.605608">
        <ele>1878.095222</ele>
        <time>2022-11-14T09:42:46.730Z</time>
      </trkpt>
      <trkpt lat="45.632007" lon="7.605580">
        <ele>1880.376099</ele>
        <time>2022-11-14T09:43:07.011Z</time>
      </trkpt>
      <trkpt lat="45.632055" lon="7.605654">
        <ele>1882.285655</ele>
        <time>2022-11-14T09:43:24.517Z</time>
      </trkpt>
      <trkpt lat="45.632302" lon="7.605672">
        <ele>1888.976918</ele>
        <time>2022-11-14T09:44:47.260Z</time>
      </trkpt>
      <trkpt lat="45.632334" lon="7.605612">
        <ele>1890.404510</ele>
        <time>2022-11-14T09:45:00.396Z</time>
      </trkpt>
      <trkpt lat="45.632382" lon="7.605780">
        <ele>1893.837890</ele>
        <time>2022-11-14T09:45:34.165Z</time>
      </trkpt>
      <trkpt lat="45.632340" lon="7.605867">
        <ele>1895.837945</ele>
        <time>2022-11-14T09:46:04.671Z</time>
      </trkpt>
      <trkpt lat="45.632449" lon="7.605957">
        <ele>1899.243184</ele>
        <time>2022-11-14T09:46:53.034Z</time>
      </trkpt>
      <trkpt lat="45.632510" lon="7.605938">
        <ele>1900.932231</ele>
        <time>2022-11-14T09:47:10.572Z</time>
      </trkpt>
      <trkpt lat="45.632568" lon="7.606128">
        <ele>1904.854323</ele>
        <time>2022-11-14T09:47:45.190Z</time>
      </trkpt>
      <trkpt lat="45.632715" lon="7.606117">
        <ele>1908.836853</ele>
        <time>2022-11-14T09:48:28.165Z</time>
      </trkpt>
      <trkpt lat="45.632880" lon="7.606259">
        <ele>1914.046918</ele>
        <time>2022-11-14T09:49:17.321Z</time>
      </trkpt>
      <trkpt lat="45.632960" lon="7.606171">
        <ele>1916.777528</ele>
        <time>2022-11-14T09:49:45.551Z</time>
      </trkpt>
      <trkpt lat="45.633089" lon="7.606296">
        <ele>1920.993331</ele>
        <time>2022-11-14T09:50:29.201Z</time>
      </trkpt>
      <trkpt lat="45.633108" lon="7.606218">
        <ele>1922.608377</ele>
        <time>2022-11-14T09:50:43.734Z</time>
      </trkpt>
      <trkpt lat="45.633252" lon="7.606248">
        <ele>1926.779629</ele>
        <time>2022-11-14T09:51:20.946Z</time>
      </trkpt>
      <trkpt lat="45.633314" lon="7.606153">
        <ele>1929.384275</ele>
        <time>2022-11-14T09:51:48.624Z</time>
      </trkpt>
      <trkpt lat="45.633417" lon="7.606132">
        <ele>1932.366568</ele>
        <time>2022-11-14T09:52:21.644Z</time>
      </trkpt>
      <trkpt lat="45.633483" lon="7.606212">
        <ele>1934.846542</ele>
        <time>2022-11-14T09:52:49.794Z</time>
      </trkpt>
      <trkpt lat="45.633764" lon="7.606253">
        <ele>1942.943071</ele>
        <time>2022-11-14T09:54:24.795Z</time>
      </trkpt>
      <trkpt lat="45.633902" lon="7.606102">
        <ele>1947.923789</ele>
        <time>2022-11-14T09:55:27.098Z</time>
      </trkpt>
      <trkpt lat="45.634092" lon="7.605589">
        <ele>1959.559329</ele>
        <time>2022-11-14T09:57:35.182Z</time>
      </trkpt>
      <trkpt lat="45.634101" lon="7.605091">
        <ele>1969.544219</ele>
        <time>2022-11-14T09:59:25.183Z</time>
      </trkpt>
      <trkpt lat="45.634209" lon="7.604853">
        <ele>1974.789843</ele>
        <time>2022-11-14T10:00:21.301Z</time>
      </trkpt>
      <trkpt lat="45.634259" lon="7.604781">
        <ele>1976.375015</ele>
        <time>2022-11-14T10:00:52.062Z</time>
      </trkpt>
      <trkpt lat="45.634382" lon="7.604762">
        <ele>1979.138879</ele>
        <time>2022-11-14T10:01:22.485Z</time>
      </trkpt>
      <trkpt lat="45.634572" lon="7.604830">
        <ele>1983.514469</ele>
        <time>2022-11-14T10:02:20.324Z</time>
      </trkpt>
      <trkpt lat="45.635300" lon="7.605534">
        <ele>2003.147436</ele>
        <time>2022-11-14T10:05:48.429Z</time>
      </trkpt>
      <trkpt lat="45.635475" lon="7.605593">
        <ele>2007.164187</ele>
        <time>2022-11-14T10:06:35.526Z</time>
      </trkpt>
      <trkpt lat="45.635435" lon="7.605443">
        <ele>2009.671950</ele>
        <time>2022-11-14T10:07:11.181Z</time>
      </trkpt>
      <trkpt lat="45.635532" lon="7.605342">
        <ele>2012.352471</ele>
        <time>2022-11-14T10:07:37.532Z</time>
      </trkpt>
      <trkpt lat="45.636296" lon="7.605149">
        <ele>2028.289355</ele>
        <time>2022-11-14T10:10:52.946Z</time>
      </trkpt>
      <trkpt lat="45.636710" lon="7.604869">
        <ele>2037.642892</ele>
        <time>2022-11-14T10:12:58.423Z</time>
      </trkpt>
      <trkpt lat="45.636771" lon="7.604733">
        <ele>2039.950357</ele>
        <time>2022-11-14T10:13:19.052Z</time>
      </trkpt>
      <trkpt lat="45.636804" lon="7.604662">
        <ele>2041.167881</ele>
        <time>2022-11-14T10:13:31.902Z</time>
      </trkpt>
      <trkpt lat="45.636887" lon="7.604607">
        <ele>2043.036231</ele>
        <time>2022-11-14T10:13:50.359Z</time>
      </trkpt>
      <trkpt lat="45.636909" lon="7.604492">
        <ele>2044.738890</ele>
        <time>2022-11-14T10:14:22.302Z</time>
      </trkpt>
      <trkpt lat="45.636874" lon="7.604457">
        <ele>2045.611156</ele>
        <time>2022-11-14T10:14:30.006Z</time>
      </trkpt>
      <trkpt lat="45.636892" lon="7.604347">
        <ele>2047.224496</ele>
        <time>2022-11-14T10:14:45.082Z</time>
      </trkpt>
      <trkpt lat="45.636629" lon="7.604242">
        <ele>2051.523310</ele>
        <time>2022-11-14T10:15:53.288Z</time>
      </trkpt>
      <trkpt lat="45.636597" lon="7.604073">
        <ele>2052.818234</ele>
        <time>2022-11-14T10:16:14.914Z</time>
      </trkpt>
      <trkpt lat="45.636829" lon="7.603478">
        <ele>2057.856766</ele>
        <time>2022-11-14T10:17:49.560Z</time>
      </trkpt>
      <trkpt lat="45.636902" lon="7.602905">
        <ele>2062.164357</ele>
        <time>2022-11-14T10:19:09.176Z</time>
      </trkpt>
      <trkpt lat="45.637098" lon="7.602520">
        <ele>2065.686543</ele>
        <time>2022-11-14T10:19:57.282Z</time>
      </trkpt>
      <trkpt lat="45.637100" lon="7.602412">
        <ele>2066.485571</ele>
        <time>2022-11-14T10:20:07.085Z</time>
      </trkpt>
      <trkpt lat="45.636938" lon="7.602323">
        <ele>2068.321205</ele>
        <time>2022-11-14T10:20:29.653Z</time>
      </trkpt>
      <trkpt lat="45.636928" lon="7.602198">
        <ele>2069.205666</ele>
        <time>2022-11-14T10:20:40.910Z</time>
      </trkpt>
      <trkpt lat="45.637006" lon="7.601926">
        <ele>2070.066421</ele>
        <time>2022-11-14T10:21:07.469Z</time>
      </trkpt>
      <trkpt lat="45.637018" lon="7.601678">
        <ele>2070.794267</ele>
        <time>2022-11-14T10:21:29.299Z</time>
      </trkpt>
      <trkpt lat="45.637184" lon="7.601367">
        <ele>2071.939827</ele>
        <time>2022-11-14T10:22:06.140Z</time>
      </trkpt>
      <trkpt lat="45.637095" lon="7.601229">
        <ele>2072.489503</ele>
        <time>2022-11-14T10:22:25.651Z</time>
      </trkpt>
      <trkpt lat="45.637044" lon="7.600946">
        <ele>2073.345165</ele>
        <time>2022-11-14T10:22:54.173Z</time>
      </trkpt>
      <trkpt lat="45.636987" lon="7.600918">
        <ele>2073.597535</ele>
        <time>2022-11-14T10:23:03.866Z</time>
      </trkpt>
      <trkpt lat="45.636967" lon="7.600810">
        <ele>2073.924647</ele>
        <time>2022-11-14T10:23:15.858Z</time>
      </trkpt>
      <trkpt lat="45.636756" lon="7.600722">
        <ele>2074.844996</ele>
        <time>2022-11-14T10:23:47.209Z</time>
      </trkpt>
      <trkpt lat="45.636661" lon="7.600507">
        <ele>2075.589651</ele>
        <time>2022-11-14T10:24:15.002Z</time>
      </trkpt>
      <trkpt lat="45.636551" lon="7.600583">
        <ele>2076.101201</ele>
        <time>2022-11-14T10:24:31.760Z</time>
      </trkpt>
      <trkpt lat="45.636190" lon="7.600581">
        <ele>2078.398146</ele>
        <time>2022-11-14T10:25:26.828Z</time>
      </trkpt>
      <trkpt lat="45.636033" lon="7.600458">
        <ele>2079.797688</ele>
        <time>2022-11-14T10:25:56.822Z</time>
      </trkpt>
      <trkpt lat="45.635739" lon="7.600036">
        <ele>2083.054210</ele>
        <time>2022-11-14T10:27:02.063Z</time>
      </trkpt>
      <trkpt lat="45.635806" lon="7.599283">
        <ele>2087.203725</ele>
        <time>2022-11-14T10:28:26.682Z</time>
      </trkpt>
      <trkpt lat="45.635857" lon="7.599245">
        <ele>2087.653316</ele>
        <time>2022-11-14T10:28:36.611Z</time>
      </trkpt>
      <trkpt lat="45.635872" lon="7.599100">
        <ele>2088.454594</ele>
        <time>2022-11-14T10:28:53.796Z</time>
      </trkpt>
      <trkpt lat="45.635809" lon="7.598680">
        <ele>2090.799537</ele>
        <time>2022-11-14T10:29:43.419Z</time>
      </trkpt>
      <trkpt lat="45.635780" lon="7.597839">
        <ele>2094.957616</ele>
        <time>2022-11-14T10:31:14.865Z</time>
      </trkpt>
      <trkpt lat="45.635587" lon="7.597441">
        <ele>2097.349429</ele>
        <time>2022-11-14T10:32:06.915Z</time>
      </trkpt>
      <trkpt lat="45.635202" lon="7.596905">
        <ele>2101.144074</ele>
        <time>2022-11-14T10:33:29.036Z</time>
      </trkpt>
      <trkpt lat="45.635223" lon="7.596461">
        <ele>2103.341671</ele>
        <time>2022-11-14T10:34:16.161Z</time>
      </trkpt>
      <trkpt lat="45.634938" lon="7.595920">
        <ele>2108.476869</ele>
        <time>2022-11-14T10:35:27.191Z</time>
      </trkpt>
      <trkpt lat="45.634846" lon="7.595656">
        <ele>2110.744738</ele>
        <time>2022-11-14T10:36:02.009Z</time>
      </trkpt>
      <trkpt lat="45.634483" lon="7.595263">
        <ele>2115.750868</ele>
        <time>2022-11-14T10:37:23.138Z</time>
      </trkpt>
      <trkpt lat="45.634330" lon="7.595185">
        <ele>2117.536894</ele>
        <time>2022-11-14T10:37:54.621Z</time>
      </trkpt>
      <trkpt lat="45.634052" lon="7.594902">
        <ele>2121.289003</ele>
        <time>2022-11-14T10:39:02.011Z</time>
      </trkpt>
      <trkpt lat="45.633805" lon="7.594856">
        <ele>2124.378865</ele>
        <time>2022-11-14T10:39:51.189Z</time>
      </trkpt>
      <trkpt lat="45.633162" lon="7.594720">
        <ele>2134.748214</ele>
        <time>2022-11-14T10:42:02.669Z</time>
      </trkpt>
      <trkpt lat="45.633087" lon="7.594678">
        <ele>2136.033148</ele>
        <time>2022-11-14T10:42:18.451Z</time>
      </trkpt>
      <trkpt lat="45.633049" lon="7.594567">
        <ele>2137.411802</ele>
        <time>2022-11-14T10:42:36.591Z</time>
      </trkpt>
      <trkpt lat="45.633006" lon="7.594362">
        <ele>2139.799278</ele>
        <time>2022-11-14T10:43:08.392Z</time>
      </trkpt>
      <trkpt lat="45.633054" lon="7.593964">
        <ele>2144.304578</ele>
        <time>2022-11-14T10:44:10.212Z</time>
      </trkpt>
      <trkpt lat="45.633011" lon="7.593423">
        <ele>2150.378374</ele>
        <time>2022-11-14T10:45:39.450Z</time>
      </trkpt>
      <trkpt lat="45.633068" lon="7.593031">
        <ele>2155.169396</ele>
        <time>2022-11-14T10:46:44.607Z</time>
      </trkpt>
      <trkpt lat="45.633172" lon="7.592898">
        <ele>2157.644139</ele>
        <time>2022-11-14T10:47:15.206Z</time>
      </trkpt>
      <trkpt lat="45.633254" lon="7.592561">
        <ele>2162.069861</ele>
        <time>2022-11-14T10:48:08.700Z</time>
      </trkpt>
      <trkpt lat="45.633530" lon="7.592202">
        <ele>2168.687593</ele>
        <time>2022-11-14T10:49:26.970Z</time>
      </trkpt>
      <trkpt lat="45.633537" lon="7.591949">
        <ele>2171.828044</ele>
        <time>2022-11-14T10:50:05.689Z</time>
      </trkpt>
      <trkpt lat="45.633440" lon="7.591588">
        <ele>2176.624785</ele>
        <time>2022-11-14T10:51:06.768Z</time>
      </trkpt>
      <trkpt lat="45.633403" lon="7.591602">
        <ele>2177.303670</ele>
        <time>2022-11-14T10:51:15.237Z</time>
      </trkpt>
      <trkpt lat="45.633283" lon="7.591398">
        <ele>2180.610161</ele>
        <time>2022-11-14T10:51:59.974Z</time>
      </trkpt>
      <trkpt lat="45.633220" lon="7.590588">
        <ele>2192.168336</ele>
        <time>2022-11-14T10:54:20.222Z</time>
      </trkpt>
      <trkpt lat="45.633118" lon="7.590564">
        <ele>2194.388742</ele>
        <time>2022-11-14T10:54:46.506Z</time>
      </trkpt>
      <trkpt lat="45.632970" lon="7.590020">
        <ele>2203.156191</ele>
        <time>2022-11-14T10:56:37.783Z</time>
      </trkpt>
      <trkpt lat="45.632705" lon="7.589591">
        <ele>2211.753869</ele>
        <time>2022-11-14T10:58:25.947Z</time>
      </trkpt>
      <trkpt lat="45.632680" lon="7.589249">
        <ele>2216.918682</ele>
        <time>2022-11-14T10:59:29.925Z</time>
      </trkpt>
      <trkpt lat="45.632346" lon="7.588710">
        <ele>2225.745057</ele>
        <time>2022-11-14T11:01:35.779Z</time>
      </trkpt>
      <trkpt lat="45.632276" lon="7.588512">
        <ele>2227.814790</ele>
        <time>2022-11-14T11:02:13.269Z</time>
      </trkpt>
      <trkpt lat="45.632140" lon="7.588318">
        <ele>2230.377431</ele>
        <time>2022-11-14T11:02:55.202Z</time>
      </trkpt>
      <trkpt lat="45.632137" lon="7.588238">
        <ele>2231.124800</ele>
        <time>2022-11-14T11:03:07.386Z</time>
      </trkpt>
      <trkpt lat="45.631907" lon="7.587942">
        <ele>2235.252729</ele>
        <time>2022-11-14T11:04:10.547Z</time>
      </trkpt>
      <trkpt lat="45.631875" lon="7.587662">
        <ele>2237.899438</ele>
        <time>2022-11-14T11:04:48.509Z</time>
      </trkpt>
      <trkpt lat="45.631632" lon="7.587275">
        <ele>2242.751570</ele>
        <time>2022-11-14T11:05:50.077Z</time>
      </trkpt>
      <trkpt lat="45.631697" lon="7.587170">
        <ele>2244.059783</ele>
        <time>2022-11-14T11:06:04.771Z</time>
      </trkpt>
      <trkpt lat="45.631671" lon="7.587047">
        <ele>2245.258505</ele>
        <time>2022-11-14T11:06:18.606Z</time>
      </trkpt>
      <trkpt lat="45.631613" lon="7.587019">
        <ele>2246.075171</ele>
        <time>2022-11-14T11:06:28.032Z</time>
      </trkpt>
      <trkpt lat="45.631672" lon="7.586888">
        <ele>2246.299417</ele>
        <time>2022-11-14T11:06:44.122Z</time>
      </trkpt>
      <trkpt lat="45.631584" lon="7.586810">
        <ele>2246.065875</ele>
        <time>2022-11-14T11:06:57.726Z</time>
      </trkpt>
      <trkpt lat="45.631490" lon="7.586537">
        <ele>2245.585879</ele>
        <time>2022-11-14T11:07:25.471Z</time>
      </trkpt>
      <trkpt lat="45.631491" lon="7.585868">
        <ele>2244.530614</ele>
        <time>2022-11-14T11:08:26.656Z</time>
      </trkpt>
      <trkpt lat="45.631308" lon="7.585503">
        <ele>2243.822177</ele>
        <time>2022-11-14T11:09:09.634Z</time>
      </trkpt>
      <trkpt lat="45.631300" lon="7.584932">
        <ele>2242.921314</ele>
        <time>2022-11-14T11:10:05.831Z</time>
      </trkpt>
      <trkpt lat="45.631431" lon="7.584589">
        <ele>2242.089717</ele>
        <time>2022-11-14T11:10:44.135Z</time>
      </trkpt>
      <trkpt lat="45.631355" lon="7.584409">
        <ele>2241.138247</ele>
        <time>2022-11-14T11:11:04.805Z</time>
      </trkpt>
      <trkpt lat="45.631389" lon="7.584152">
        <ele>2239.954678</ele>
        <time>2022-11-14T11:11:31.507Z</time>
      </trkpt>
      <trkpt lat="45.631327" lon="7.583900">
        <ele>2238.745843</ele>
        <time>2022-11-14T11:11:58.887Z</time>
      </trkpt>
      <trkpt lat="45.631352" lon="7.583808">
        <ele>2238.299209</ele>
        <time>2022-11-14T11:12:09.322Z</time>
      </trkpt>
      <trkpt lat="45.631183" lon="7.583116">
        <ele>2234.982387</ele>
        <time>2022-11-14T11:13:23.278Z</time>
      </trkpt>
      <trkpt lat="45.631226" lon="7.582622">
        <ele>2232.729752</ele>
        <time>2022-11-14T11:14:12.041Z</time>
      </trkpt>
      <trkpt lat="45.631162" lon="7.582408">
        <ele>2231.676543</ele>
        <time>2022-11-14T11:14:34.195Z</time>
      </trkpt>
      <trkpt lat="45.630821" lon="7.581955">
        <ele>2230.805767</ele>
        <time>2022-11-14T11:15:37.589Z</time>
      </trkpt>
      <trkpt lat="45.630561" lon="7.581601">
        <ele>2230.833217</ele>
        <time>2022-11-14T11:16:24.277Z</time>
      </trkpt>
      <trkpt lat="45.630135" lon="7.580867">
        <ele>2230.884220</ele>
        <time>2022-11-14T11:17:48.179Z</time>
      </trkpt>
      <trkpt lat="45.629939" lon="7.580330">
        <ele>2230.916609</ele>
        <time>2022-11-14T11:18:46.864Z</time>
      </trkpt>
      <trkpt lat="45.629481" lon="7.580310">
        <ele>2233.920371</ele>
        <time>2022-11-14T11:19:59.316Z</time>
      </trkpt>
      <trkpt lat="45.629162" lon="7.580578">
        <ele>2236.466748</ele>
        <time>2022-11-14T11:20:56.843Z</time>
      </trkpt>
      <trkpt lat="45.629020" lon="7.580600">
        <ele>2237.449781</ele>
        <time>2022-11-14T11:21:19.601Z</time>
      </trkpt>
      <trkpt lat="45.628713" lon="7.580327">
        <ele>2239.937931</ele>
        <time>2022-11-14T11:22:16.084Z</time>
      </trkpt>
      <trkpt lat="45.628368" lon="7.580158">
        <ele>2242.447846</ele>
        <time>2022-11-14T11:23:14.257Z</time>
      </trkpt>
      <trkpt lat="45.628234" lon="7.579676">
        <ele>2244.106484</ele>
        <time>2022-11-14T11:24:11.843Z</time>
      </trkpt>
      <trkpt lat="45.628217" lon="7.579383">
        <ele>2244.801643</ele>
        <time>2022-11-14T11:24:42.811Z</time>
      </trkpt>
      <trkpt lat="45.628106" lon="7.579134">
        <ele>2245.499833</ele>
        <time>2022-11-14T11:25:13.921Z</time>
      </trkpt>
      <trkpt lat="45.628144" lon="7.578676">
        <ele>2246.590339</ele>
        <time>2022-11-14T11:25:59.423Z</time>
      </trkpt>
      <trkpt lat="45.628121" lon="7.578277">
        <ele>2247.536948</ele>
        <time>2022-11-14T11:26:36.213Z</time>
      </trkpt>
      <trkpt lat="45.628023" lon="7.578042">
        <ele>2248.183887</ele>
        <time>2022-11-14T11:27:02.711Z</time>
      </trkpt>
      <trkpt lat="45.627799" lon="7.577597">
        <ele>2249.365796</ele>
        <time>2022-11-14T11:27:51.315Z</time>
      </trkpt>
      <trkpt lat="45.627622" lon="7.577582">
        <ele>2249.288887</ele>
        <time>2022-11-14T11:28:14.536Z</time>
      </trkpt>
      <trkpt lat="45.627524" lon="7.577473">
        <ele>2249.235035</ele>
        <time>2022-11-14T11:28:30.600Z</time>
      </trkpt>
      <trkpt lat="45.627329" lon="7.577514">
        <ele>2249.149544</ele>
        <time>2022-11-14T11:28:56.874Z</time>
      </trkpt>
      <trkpt lat="45.627237" lon="7.577358">
        <ele>2249.087644</ele>
        <time>2022-11-14T11:29:14.806Z</time>
      </trkpt>
      <trkpt lat="45.626868" lon="7.576985">
        <ele>2248.891636</ele>
        <time>2022-11-14T11:30:13.734Z</time>
      </trkpt>
      <trkpt lat="45.626661" lon="7.576930">
        <ele>2248.800313</ele>
        <time>2022-11-14T11:30:42.592Z</time>
      </trkpt>
      <trkpt lat="45.626539" lon="7.576829">
        <ele>2248.739166</ele>
        <time>2022-11-14T11:31:01.783Z</time>
      </trkpt>
      <trkpt lat="45.626391" lon="7.576426">
        <ele>2248.601091</ele>
        <time>2022-11-14T11:31:46.970Z</time>
      </trkpt>
      <trkpt lat="45.626138" lon="7.576043">
        <ele>2251.415588</ele>
        <time>2022-11-14T11:32:40.570Z</time>
      </trkpt>
      <trkpt lat="45.626015" lon="7.575708">
        <ele>2253.470004</ele>
        <time>2022-11-14T11:33:22.285Z</time>
      </trkpt>
      <trkpt lat="45.625917" lon="7.575670">
        <ele>2254.258367</ele>
        <time>2022-11-14T11:33:35.190Z</time>
      </trkpt>
      <trkpt lat="45.625764" lon="7.575424">
        <ele>2256.045902</ele>
        <time>2022-11-14T11:34:11.924Z</time>
      </trkpt>
      <trkpt lat="45.625568" lon="7.575401">
        <ele>2257.572784</ele>
        <time>2022-11-14T11:34:39.281Z</time>
      </trkpt>
      <trkpt lat="45.625444" lon="7.575217">
        <ele>2258.960248</ele>
        <time>2022-11-14T11:35:20.886Z</time>
      </trkpt>
      <trkpt lat="45.625182" lon="7.574494">
        <ele>2264.356322</ele>
        <time>2022-11-14T11:36:57.021Z</time>
      </trkpt>
      <trkpt lat="45.625091" lon="7.574129">
        <ele>2268.966583</ele>
        <time>2022-11-14T11:37:48.778Z</time>
      </trkpt>
      <trkpt lat="45.625135" lon="7.573585">
        <ele>2275.481935</ele>
        <time>2022-11-14T11:39:08.968Z</time>
      </trkpt>
      <trkpt lat="45.625055" lon="7.573409">
        <ele>2277.979308</ele>
        <time>2022-11-14T11:39:51.155Z</time>
      </trkpt>
      <trkpt lat="45.625021" lon="7.573145">
        <ele>2281.173052</ele>
        <time>2022-11-14T11:40:32.409Z</time>
      </trkpt>
      <trkpt lat="45.624927" lon="7.572989">
        <ele>2283.622953</ele>
        <time>2022-11-14T11:41:04.841Z</time>
      </trkpt>
      <trkpt lat="45.624601" lon="7.572903">
        <ele>2289.262507</ele>
        <time>2022-11-14T11:42:17.234Z</time>
      </trkpt>
      <trkpt lat="45.624267" lon="7.572943">
        <ele>2295.613089</ele>
        <time>2022-11-14T11:43:36.421Z</time>
      </trkpt>
      <trkpt lat="45.623752" lon="7.572880">
        <ele>2307.571211</ele>
        <time>2022-11-14T11:46:00.819Z</time>
      </trkpt>
      <trkpt lat="45.623417" lon="7.572613">
        <ele>2316.444184</ele>
        <time>2022-11-14T11:47:43.839Z</time>
      </trkpt>
      <trkpt lat="45.623025" lon="7.572168">
        <ele>2328.023840</ele>
        <time>2022-11-14T11:50:05.189Z</time>
      </trkpt>
      <trkpt lat="45.622654" lon="7.571932">
        <ele>2336.963334</ele>
        <time>2022-11-14T11:52:01.265Z</time>
      </trkpt>
      <trkpt lat="45.622523" lon="7.571648">
        <ele>2341.521220</ele>
        <time>2022-11-14T11:53:06.477Z</time>
      </trkpt>
      <trkpt lat="45.622228" lon="7.570699">
        <ele>2355.434703</ele>
        <time>2022-11-14T11:56:04.342Z</time>
      </trkpt>
      <trkpt lat="45.622161" lon="7.570669">
        <ele>2356.779622</ele>
        <time>2022-11-14T11:56:19.973Z</time>
      </trkpt>
      <trkpt lat="45.622042" lon="7.570237">
        <ele>2363.000097</ele>
        <time>2022-11-14T11:57:34.835Z</time>
      </trkpt>
      <trkpt lat="45.621988" lon="7.570275">
        <ele>2364.153020</ele>
        <time>2022-11-14T11:57:47.164Z</time>
      </trkpt>
      <trkpt lat="45.621831" lon="7.570009">
        <ele>2368.816221</ele>
        <time>2022-11-14T11:58:42.918Z</time>
      </trkpt>
      <trkpt lat="45.621934" lon="7.570033">
        <ele>2369.613742</ele>
        <time>2022-11-14T11:59:00.914Z</time>
      </trkpt>
      <trkpt lat="45.621887" lon="7.569644">
        <ele>2370.896171</ele>
        <time>2022-11-14T11:59:50.453Z</time>
      </trkpt>
      <trkpt lat="45.622030" lon="7.568859">
        <ele>2373.531412</ele>
        <time>2022-11-14T12:01:15.841Z</time>
      </trkpt>
      <trkpt lat="45.622322" lon="7.568219">
        <ele>2376.013802</ele>
        <time>2022-11-14T12:02:32.557Z</time>
      </trkpt>
      <trkpt lat="45.622353" lon="7.568042">
        <ele>2376.606557</ele>
        <time>2022-11-14T12:02:49.561Z</time>
      </trkpt>
      <trkpt lat="45.622257" lon="7.567841">
        <ele>2377.397254</ele>
        <time>2022-11-14T12:03:13.816Z</time>
      </trkpt>
      <trkpt lat="45.622403" lon="7.567522">
        <ele>2372.913114</ele>
        <time>2022-11-14T12:03:53.946Z</time>
      </trkpt>
      <trkpt lat="45.622369" lon="7.567393">
        <ele>2370.924941</ele>
        <time>2022-11-14T12:04:06.900Z</time>
      </trkpt>
      <trkpt lat="45.622483" lon="7.567247">
        <ele>2367.769004</ele>
        <time>2022-11-14T12:04:33.367Z</time>
      </trkpt>
      <trkpt lat="45.622482" lon="7.567132">
        <ele>2366.110340</ele>
        <time>2022-11-14T12:04:48.177Z</time>
      </trkpt>
      <trkpt lat="45.622556" lon="7.567046">
        <ele>2364.143898</ele>
        <time>2022-11-14T12:05:03.106Z</time>
      </trkpt>
      <trkpt lat="45.622515" lon="7.566946">
        <ele>2362.472143</ele>
        <time>2022-11-14T12:05:16.329Z</time>
      </trkpt>
      <trkpt lat="45.622547" lon="7.566847">
        <ele>2360.899249</ele>
        <time>2022-11-14T12:05:32.341Z</time>
      </trkpt>
      <trkpt lat="45.622449" lon="7.566603">
        <ele>2356.841278</ele>
        <time>2022-11-14T12:06:07.658Z</time>
      </trkpt>
      <trkpt lat="45.622408" lon="7.566247">
        <ele>2351.637876</ele>
        <time>2022-11-14T12:07:02.377Z</time>
      </trkpt>
      <trkpt lat="45.622273" lon="7.566120">
        <ele>2348.305519</ele>
        <time>2022-11-14T12:07:34.850Z</time>
      </trkpt>
      <trkpt lat="45.622182" lon="7.565790">
        <ele>2343.189636</ele>
        <time>2022-11-14T12:08:32.232Z</time>
      </trkpt>
      <trkpt lat="45.622068" lon="7.565044">
        <ele>2325.686614</ele>
        <time>2022-11-14T12:10:53.005Z</time>
      </trkpt>
      <trkpt lat="45.621938" lon="7.564624">
        <ele>2313.893344</ele>
        <time>2022-11-14T12:12:16.601Z</time>
      </trkpt>
      <trkpt lat="45.621554" lon="7.563809">
        <ele>2288.660700</ele>
        <time>2022-11-14T12:15:28.530Z</time>
      </trkpt>
      <trkpt lat="45.621524" lon="7.563639">
        <ele>2284.158764</ele>
        <time>2022-11-14T12:16:07.505Z</time>
      </trkpt>
      <trkpt lat="45.621402" lon="7.563423">
        <ele>2277.029728</ele>
        <time>2022-11-14T12:16:50.010Z</time>
      </trkpt>
      <trkpt lat="45.621153" lon="7.563100">
        <ele>2267.692357</ele>
        <time>2022-11-14T12:18:07.846Z</time>
      </trkpt>
      <trkpt lat="45.621105" lon="7.562838">
        <ele>2262.876959</ele>
        <time>2022-11-14T12:18:54.329Z</time>
      </trkpt>
      <trkpt lat="45.621116" lon="7.562612">
        <ele>2258.849069</ele>
        <time>2022-11-14T12:19:25.047Z</time>
      </trkpt>
      <trkpt lat="45.621022" lon="7.562483">
        <ele>2255.536890</ele>
        <time>2022-11-14T12:19:53.800Z</time>
      </trkpt>
      <trkpt lat="45.620803" lon="7.561924">
        <ele>2244.145073</ele>
        <time>2022-11-14T12:21:33.271Z</time>
      </trkpt>
      <trkpt lat="45.620744" lon="7.561629">
        <ele>2238.689850</ele>
        <time>2022-11-14T12:22:10.410Z</time>
      </trkpt>
      <trkpt lat="45.620626" lon="7.561337">
        <ele>2232.693894</ele>
        <time>2022-11-14T12:22:49.355Z</time>
      </trkpt>
      <trkpt lat="45.620610" lon="7.560961">
        <ele>2226.725384</ele>
        <time>2022-11-14T12:23:31.808Z</time>
      </trkpt>
      <trkpt lat="45.620435" lon="7.560469">
        <ele>2219.523277</ele>
        <time>2022-11-14T12:24:34.849Z</time>
      </trkpt>
      <trkpt lat="45.620514" lon="7.560159">
        <ele>2215.218249</ele>
        <time>2022-11-14T12:25:13.304Z</time>
      </trkpt>
      <trkpt lat="45.620446" lon="7.560017">
        <ele>2212.972747</ele>
        <time>2022-11-14T12:25:33.871Z</time>
      </trkpt>
      <trkpt lat="45.620131" lon="7.559665">
        <ele>2205.514248</ele>
        <time>2022-11-14T12:26:44.096Z</time>
      </trkpt>
      <trkpt lat="45.620275" lon="7.559342">
        <ele>2200.516321</ele>
        <time>2022-11-14T12:27:33.305Z</time>
      </trkpt>
      <trkpt lat="45.620125" lon="7.559114">
        <ele>2196.432044</ele>
        <time>2022-11-14T12:28:15.197Z</time>
      </trkpt>
      <trkpt lat="45.619666" lon="7.559010">
        <ele>2185.939044</ele>
        <time>2022-11-14T12:29:42.474Z</time>
      </trkpt>
      <trkpt lat="45.619440" lon="7.559072">
        <ele>2180.590846</ele>
        <time>2022-11-14T12:30:24.480Z</time>
      </trkpt>
      <trkpt lat="45.619177" lon="7.558873">
        <ele>2173.675379</ele>
        <time>2022-11-14T12:31:16.720Z</time>
      </trkpt>
      <trkpt lat="45.618920" lon="7.558473">
        <ele>2164.846369</ele>
        <time>2022-11-14T12:32:39.947Z</time>
      </trkpt>
      <trkpt lat="45.618656" lon="7.558246">
        <ele>2157.686742</ele>
        <time>2022-11-14T12:33:49.195Z</time>
      </trkpt>
      <trkpt lat="45.618485" lon="7.558533">
        <ele>2151.851263</ele>
        <time>2022-11-14T12:34:42.698Z</time>
      </trkpt>
      <trkpt lat="45.618196" lon="7.558636">
        <ele>2146.043227</ele>
        <time>2022-11-14T12:35:42.083Z</time>
      </trkpt>
      <trkpt lat="45.618097" lon="7.559084">
        <ele>2139.635147</ele>
        <time>2022-11-14T12:36:43.180Z</time>
      </trkpt>
      <trkpt lat="45.617981" lon="7.559350">
        <ele>2135.359702</ele>
        <time>2022-11-14T12:37:29.817Z</time>
      </trkpt>
      <trkpt lat="45.617749" lon="7.558746">
        <ele>2125.961096</ele>
        <time>2022-11-14T12:38:30.657Z</time>
      </trkpt>
      <trkpt lat="45.617843" lon="7.558217">
        <ele>2118.516710</ele>
        <time>2022-11-14T12:39:19.500Z</time>
      </trkpt>
      <trkpt lat="45.617752" lon="7.557868">
        <ele>2115.849445</ele>
        <time>2022-11-14T12:39:56.046Z</time>
      </trkpt>
      <trkpt lat="45.617586" lon="7.557225">
        <ele>2111.134360</ele>
        <time>2022-11-14T12:40:56.747Z</time>
      </trkpt>
      <trkpt lat="45.617597" lon="7.557021">
        <ele>2109.726816</ele>
        <time>2022-11-14T12:41:13.045Z</time>
      </trkpt>
      <trkpt lat="45.617360" lon="7.556638">
        <ele>2106.208921</ele>
        <time>2022-11-14T12:41:52.145Z</time>
      </trkpt>
      <trkpt lat="45.617172" lon="7.555873">
        <ele>2100.630833</ele>
        <time>2022-11-14T12:42:56.722Z</time>
      </trkpt>
      <trkpt lat="45.617131" lon="7.555737">
        <ele>2099.816958</ele>
        <time>2022-11-14T12:43:09.110Z</time>
      </trkpt>
      <trkpt lat="45.617046" lon="7.555678">
        <ele>2099.077602</ele>
        <time>2022-11-14T12:43:19.085Z</time>
      </trkpt>
      <trkpt lat="45.616994" lon="7.555724">
        <ele>2098.599119</ele>
        <time>2022-11-14T12:43:26.281Z</time>
      </trkpt>
      <trkpt lat="45.616934" lon="7.555964">
        <ele>2097.204191</ele>
        <time>2022-11-14T12:43:46.945Z</time>
      </trkpt>
      <trkpt lat="45.616880" lon="7.555983">
        <ele>2096.769041</ele>
        <time>2022-11-14T12:43:53.303Z</time>
      </trkpt>
      <trkpt lat="45.616649" lon="7.555645">
        <ele>2094.182654</ele>
        <time>2022-11-14T12:44:31.167Z</time>
      </trkpt>
      <trkpt lat="45.616539" lon="7.555625">
        <ele>2093.314988</ele>
        <time>2022-11-14T12:44:43.104Z</time>
      </trkpt>
      <trkpt lat="45.616481" lon="7.555677">
        <ele>2092.779290</ele>
        <time>2022-11-14T12:44:51.560Z</time>
      </trkpt>
      <trkpt lat="45.616507" lon="7.555971">
        <ele>2091.157373</ele>
        <time>2022-11-14T12:45:15.723Z</time>
      </trkpt>
      <trkpt lat="45.616951" lon="7.556824">
        <ele>2084.972875</ele>
        <time>2022-11-14T12:46:42.205Z</time>
      </trkpt>
      <trkpt lat="45.617152" lon="7.557531">
        <ele>2079.527895</ele>
        <time>2022-11-14T12:47:47.290Z</time>
      </trkpt>
      <trkpt lat="45.617026" lon="7.558656">
        <ele>2071.399134</ele>
        <time>2022-11-14T12:49:23.163Z</time>
      </trkpt>
      <trkpt lat="45.617024" lon="7.558966">
        <ele>2069.187287</ele>
        <time>2022-11-14T12:49:49.292Z</time>
      </trkpt>
      <trkpt lat="45.617080" lon="7.559253">
        <ele>2067.183015</ele>
        <time>2022-11-14T12:50:14.808Z</time>
      </trkpt>
      <trkpt lat="45.616957" lon="7.559915">
        <ele>2062.820843</ele>
        <time>2022-11-14T12:51:12.678Z</time>
      </trkpt>
      <trkpt lat="45.616990" lon="7.560552">
        <ele>2058.752980</ele>
        <time>2022-11-14T12:52:05.728Z</time>
      </trkpt>
      <trkpt lat="45.617315" lon="7.560960">
        <ele>2054.814973</ele>
        <time>2022-11-14T12:52:55.994Z</time>
      </trkpt>
      <trkpt lat="45.617464" lon="7.561774">
        <ele>2049.922806</ele>
        <time>2022-11-14T12:54:03.546Z</time>
      </trkpt>
      <trkpt lat="45.617813" lon="7.562003">
        <ele>2047.117277</ele>
        <time>2022-11-14T12:54:47.332Z</time>
      </trkpt>
      <trkpt lat="45.617869" lon="7.562146">
        <ele>2046.279785</ele>
        <time>2022-11-14T12:55:00.175Z</time>
      </trkpt>
      <trkpt lat="45.617882" lon="7.562827">
        <ele>2042.798475</ele>
        <time>2022-11-14T12:55:54.589Z</time>
      </trkpt>
      <trkpt lat="45.617913" lon="7.563072">
        <ele>2041.526167</ele>
        <time>2022-11-14T12:56:14.916Z</time>
      </trkpt>
      <trkpt lat="45.617834" lon="7.563645">
        <ele>2038.551834</ele>
        <time>2022-11-14T12:57:01.981Z</time>
      </trkpt>
      <trkpt lat="45.617571" lon="7.565178">
        <ele>2031.094993</ele>
        <time>2022-11-14T12:59:09.066Z</time>
      </trkpt>
      <trkpt lat="45.617376" lon="7.565794">
        <ele>2027.900716</ele>
        <time>2022-11-14T13:00:01.926Z</time>
      </trkpt>
      <trkpt lat="45.617380" lon="7.566105">
        <ele>2026.449244</ele>
        <time>2022-11-14T13:00:26.367Z</time>
      </trkpt>
      <trkpt lat="45.617464" lon="7.566398">
        <ele>2025.233451</ele>
        <time>2022-11-14T13:00:50.406Z</time>
      </trkpt>
      <trkpt lat="45.617562" lon="7.567119">
        <ele>2022.413419</ele>
        <time>2022-11-14T13:01:47.464Z</time>
      </trkpt>
      <trkpt lat="45.617434" lon="7.568077">
        <ele>2018.668712</ele>
        <time>2022-11-14T13:03:01.801Z</time>
      </trkpt>
      <trkpt lat="45.617397" lon="7.568797">
        <ele>2015.470546</ele>
        <time>2022-11-14T13:03:58.957Z</time>
      </trkpt>
      <trkpt lat="45.617383" lon="7.569205">
        <ele>2013.019236</ele>
        <time>2022-11-14T13:04:32.211Z</time>
      </trkpt>
      <trkpt lat="45.617123" lon="7.570550">
        <ele>2004.645432</ele>
        <time>2022-11-14T13:06:26.514Z</time>
      </trkpt>
      <trkpt lat="45.617096" lon="7.570732">
        <ele>2003.528968</ele>
        <time>2022-11-14T13:06:42.712Z</time>
      </trkpt>
      <trkpt lat="45.616927" lon="7.571851">
        <ele>1994.985186</ele>
        <time>2022-11-14T13:08:18.018Z</time>
      </trkpt>
      <trkpt lat="45.617026" lon="7.572597">
        <ele>1988.757184</ele>
        <time>2022-11-14T13:09:22.882Z</time>
      </trkpt>
      <trkpt lat="45.616976" lon="7.573885">
        <ele>1977.596691</ele>
        <time>2022-11-14T13:11:15.878Z</time>
      </trkpt>
      <trkpt lat="45.617246" lon="7.575227">
        <ele>1962.744730</ele>
        <time>2022-11-14T13:13:22.906Z</time>
      </trkpt>
      <trkpt lat="45.617804" lon="7.576903">
        <ele>1943.527711</ele>
        <time>2022-11-14T13:16:11.415Z</time>
      </trkpt>
      <trkpt lat="45.617821" lon="7.577071">
        <ele>1941.819223</ele>
        <time>2022-11-14T13:16:27.343Z</time>
      </trkpt>
      <trkpt lat="45.617769" lon="7.577219">
        <ele>1940.152256</ele>
        <time>2022-11-14T13:16:42.420Z</time>
      </trkpt>
      <trkpt lat="45.617799" lon="7.577616">
        <ele>1936.133281</ele>
        <time>2022-11-14T13:17:18.438Z</time>
      </trkpt>
      <trkpt lat="45.618390" lon="7.578633">
        <ele>1924.238579</ele>
        <time>2022-11-14T13:19:13.614Z</time>
      </trkpt>
      <trkpt lat="45.618587" lon="7.578988">
        <ele>1921.259958</ele>
        <time>2022-11-14T13:19:51.777Z</time>
      </trkpt>
      <trkpt lat="45.618645" lon="7.579332">
        <ele>1918.934091</ele>
        <time>2022-11-14T13:20:20.974Z</time>
      </trkpt>
      <trkpt lat="45.618807" lon="7.579546">
        <ele>1916.861344</ele>
        <time>2022-11-14T13:20:47.362Z</time>
      </trkpt>
      <trkpt lat="45.618885" lon="7.580250">
        <ele>1912.176301</ele>
        <time>2022-11-14T13:21:45.575Z</time>
      </trkpt>
      <trkpt lat="45.619101" lon="7.580524">
        <ele>1909.686702</ele>
        <time>2022-11-14T13:22:18.665Z</time>
      </trkpt>
      <trkpt lat="45.619349" lon="7.581117">
        <ele>1907.054210</ele>
        <time>2022-11-14T13:23:12.157Z</time>
      </trkpt>
      <trkpt lat="45.619990" lon="7.582018">
        <ele>1902.157508</ele>
        <time>2022-11-14T13:24:50.745Z</time>
      </trkpt>
      <trkpt lat="45.620141" lon="7.582508">
        <ele>1900.091197</ele>
        <time>2022-11-14T13:25:32.098Z</time>
      </trkpt>
      <trkpt lat="45.620158" lon="7.583022">
        <ele>1897.489982</ele>
        <time>2022-11-14T13:26:11.758Z</time>
      </trkpt>
      <trkpt lat="45.620095" lon="7.584168">
        <ele>1891.678989</ele>
        <time>2022-11-14T13:27:43.818Z</time>
      </trkpt>
      <trkpt lat="45.620000" lon="7.584659">
        <ele>1889.103718</ele>
        <time>2022-11-14T13:28:25.150Z</time>
      </trkpt>
      <trkpt lat="45.620096" lon="7.585276">
        <ele>1885.597910</ele>
        <time>2022-11-14T13:29:16.810Z</time>
      </trkpt>
      <trkpt lat="45.620094" lon="7.585574">
        <ele>1883.728509</ele>
        <time>2022-11-14T13:29:42.399Z</time>
      </trkpt>
      <trkpt lat="45.619978" lon="7.585965">
        <ele>1881.064283</ele>
        <time>2022-11-14T13:30:18.183Z</time>
      </trkpt>
      <trkpt lat="45.620004" lon="7.586345">
        <ele>1878.669210</ele>
        <time>2022-11-14T13:30:50.205Z</time>
      </trkpt>
      <trkpt lat="45.619957" lon="7.586945">
        <ele>1874.881948</ele>
        <time>2022-11-14T13:31:41.049Z</time>
      </trkpt>
      <trkpt lat="45.620105" lon="7.588077">
        <ele>1869.839170</ele>
        <time>2022-11-14T13:33:13.043Z</time>
      </trkpt>
      <trkpt lat="45.620509" lon="7.588773">
        <ele>1867.796644</ele>
        <time>2022-11-14T13:34:20.027Z</time>
      </trkpt>
      <trkpt lat="45.620830" lon="7.589460">
        <ele>1865.930879</ele>
        <time>2022-11-14T13:35:19.103Z</time>
      </trkpt>
      <trkpt lat="45.620985" lon="7.589673">
        <ele>1865.233001</ele>
        <time>2022-11-14T13:35:41.219Z</time>
      </trkpt>
      <trkpt lat="45.621550" lon="7.590028">
        <ele>1862.899674</ele>
        <time>2022-11-14T13:36:45.515Z</time>
      </trkpt>
      <trkpt lat="45.621843" lon="7.590344">
        <ele>1861.512087</ele>
        <time>2022-11-14T13:37:24.043Z</time>
      </trkpt>
      <trkpt lat="45.622317" lon="7.590513">
        <ele>1859.665099</ele>
        <time>2022-11-14T13:38:16.869Z</time>
      </trkpt>
      <trkpt lat="45.622598" lon="7.590664">
        <ele>1858.530134</ele>
        <time>2022-11-14T13:38:51.478Z</time>
      </trkpt>
      <trkpt lat="45.622954" lon="7.590974">
        <ele>1854.188244</ele>
        <time>2022-11-14T13:39:40.138Z</time>
      </trkpt>
      <trkpt lat="45.623283" lon="7.591423">
        <ele>1849.306492</ele>
        <time>2022-11-14T13:40:35.244Z</time>
      </trkpt>
      <trkpt lat="45.623801" lon="7.591997">
        <ele>1842.272229</ele>
        <time>2022-11-14T13:41:57.331Z</time>
      </trkpt>
      <trkpt lat="45.623972" lon="7.592027">
        <ele>1840.423005</ele>
        <time>2022-11-14T13:42:18.505Z</time>
      </trkpt>
      <trkpt lat="45.624130" lon="7.591955">
        <ele>1838.633139</ele>
        <time>2022-11-14T13:42:38.996Z</time>
      </trkpt>
      <trkpt lat="45.624290" lon="7.592040">
        <ele>1836.765425</ele>
        <time>2022-11-14T13:42:59.793Z</time>
      </trkpt>
      <trkpt lat="45.624601" lon="7.592859">
        <ele>1829.633610</ele>
        <time>2022-11-14T13:44:19.588Z</time>
      </trkpt>
      <trkpt lat="45.625025" lon="7.593468">
        <ele>1823.057497</ele>
        <time>2022-11-14T13:45:31.597Z</time>
      </trkpt>
      <trkpt lat="45.625369" lon="7.593587">
        <ele>1819.197429</ele>
        <time>2022-11-14T13:46:14.180Z</time>
      </trkpt>
      <trkpt lat="45.625753" lon="7.594062">
        <ele>1813.888201</ele>
        <time>2022-11-14T13:47:15.793Z</time>
      </trkpt>
      <trkpt lat="45.625906" lon="7.594512">
        <ele>1810.229220</ele>
        <time>2022-11-14T13:47:57.793Z</time>
      </trkpt>
      <trkpt lat="45.626138" lon="7.594837">
        <ele>1806.833157</ele>
        <time>2022-11-14T13:48:36.171Z</time>
      </trkpt>
      <trkpt lat="45.626381" lon="7.595330">
        <ele>1802.422591</ele>
        <time>2022-11-14T13:49:26.553Z</time>
      </trkpt>
      <trkpt lat="45.626774" lon="7.595688">
        <ele>1797.020431</ele>
        <time>2022-11-14T13:50:23.933Z</time>
      </trkpt>
      <trkpt lat="45.627051" lon="7.596229">
        <ele>1791.283068</ele>
        <time>2022-11-14T13:51:22.860Z</time>
      </trkpt>
      <trkpt lat="45.627037" lon="7.596681">
        <ele>1787.411599</ele>
        <time>2022-11-14T13:52:03.287Z</time>
      </trkpt>
      <trkpt lat="45.627076" lon="7.596925">
        <ele>1785.269900</ele>
        <time>2022-11-14T13:52:25.254Z</time>
      </trkpt>
      <trkpt lat="45.627248" lon="7.597421">
        <ele>1780.532589</ele>
        <time>2022-11-14T13:53:12.773Z</time>
      </trkpt>
      <trkpt lat="45.627486" lon="7.597511">
        <ele>1777.990783</ele>
        <time>2022-11-14T13:53:42.927Z</time>
      </trkpt>
      <trkpt lat="45.627936" lon="7.598015">
        <ele>1773.895338</ele>
        <time>2022-11-14T13:54:51.396Z</time>
      </trkpt>
      <trkpt lat="45.628060" lon="7.598471">
        <ele>1771.443887</ele>
        <time>2022-11-14T13:55:30.601Z</time>
      </trkpt>
      <trkpt lat="45.628465" lon="7.599443">
        <ele>1765.774750</ele>
        <time>2022-11-14T13:56:57.327Z</time>
      </trkpt>
      <trkpt lat="45.628653" lon="7.599639">
        <ele>1764.864700</ele>
        <time>2022-11-14T13:57:21.503Z</time>
      </trkpt>
      <trkpt lat="45.628893" lon="7.600529">
        <ele>1762.263858</ele>
        <time>2022-11-14T13:58:32.341Z</time>
      </trkpt>
      <trkpt lat="45.628977" lon="7.601654">
        <ele>1759.179011</ele>
        <time>2022-11-14T13:59:58.185Z</time>
      </trkpt>
      <trkpt lat="45.629109" lon="7.602173">
        <ele>1757.422030</ele>
        <time>2022-11-14T14:00:41.550Z</time>
      </trkpt>
      <trkpt lat="45.629139" lon="7.603297">
        <ele>1753.643250</ele>
        <time>2022-11-14T14:02:07.688Z</time>
      </trkpt>
      <trkpt lat="45.629073" lon="7.603909">
        <ele>1751.562957</ele>
        <time>2022-11-14T14:02:55.821Z</time>
      </trkpt>
      <trkpt lat="45.629139" lon="7.604222">
        <ele>1750.464683</ele>
        <time>2022-11-14T14:03:20.622Z</time>
      </trkpt>
      <trkpt lat="45.629352" lon="7.604610">
        <ele>1750.114709</ele>
        <time>2022-11-14T14:03:58.396Z</time>
      </trkpt>
      <trkpt lat="45.629340" lon="7.604888">
        <ele>1750.114709</ele>
        <time>2022-11-14T14:04:19.869Z</time>
      </trkpt>
      <trkpt lat="45.629270" lon="7.605125">
        <ele>1750.114709</ele>
        <time>2022-11-14T14:04:38.330Z</time>
      </trkpt>
      <trkpt lat="45.629236" lon="7.605200">
        <ele>1750.114709</ele>
        <time>2022-11-14T14:04:45.104Z</time>
      </trkpt>
      <trkpt lat="45.628972" lon="7.605521">
        <ele>1750.114709</ele>
        <time>2022-11-14T14:05:20.878Z</time>
      </trkpt>
      <trkpt lat="45.628887" lon="7.605736">
        <ele>1750.114709</ele>
        <time>2022-11-14T14:05:39.142Z</time>
      </trkpt>
    </trkseg>
  </trk>
</gpx>